sensor_id;sensor_type;location;lat;lon;timestamp;P1;durP1;ratioP1;P2;durP2;ratioP2
64029;SDS011;50277;52.064;4.492;2023-04-12T00:01:47;9.93;;;3.70;;
64029;SDS011;50277;52.064;4.492;2023-04-12T00:04:13;10.70;;;3.45;;
64029;SDS011;50277;52.064;4.492;2023-04-12T00:06:40;5.05;;;2.83;;
64029;SDS011;50277;52.064;4.492;2023-04-12T00:09:12;10.88;;;3.25;;
64029;SDS011;50277;52.064;4.492;2023-04-12T00:11:40;9.43;;;3.80;;
64029;SDS011;50277;52.064;4.492;2023-04-12T00:14:06;8.88;;;3.63;;
64029;SDS011;50277;52.064;4.492;2023-04-12T00:16:31;6.00;;;3.20;;
64029;SDS011;50277;52.064;4.492;2023-04-12T00:18:56;8.60;;;3.83;;
64029;SDS011;50277;52.064;4.492;2023-04-12T00:21:22;9.38;;;3.40;;
64029;SDS011;50277;52.064;4.492;2023-04-12T00:23:54;7.22;;;3.72;;
64029;SDS011;50277;52.064;4.492;2023-04-12T00:26:19;9.15;;;3.53;;
64029;SDS011;50277;52.064;4.492;2023-04-12T00:28:49;8.65;;;3.17;;
64029;SDS011;50277;52.064;4.492;2023-04-12T00:31:14;8.63;;;3.47;;
64029;SDS011;50277;52.064;4.492;2023-04-12T00:33:39;13.90;;;3.78;;
64029;SDS011;50277;52.064;4.492;2023-04-12T00:36:05;6.90;;;3.55;;
64029;SDS011;50277;52.064;4.492;2023-04-12T00:38:31;10.43;;;3.63;;
64029;SDS011;50277;52.064;4.492;2023-04-12T00:40:56;7.57;;;4.13;;
64029;SDS011;50277;52.064;4.492;2023-04-12T00:43:22;5.65;;;3.30;;
64029;SDS011;50277;52.064;4.492;2023-04-12T00:45:51;8.73;;;3.63;;
64029;SDS011;50277;52.064;4.492;2023-04-12T00:48:18;6.90;;;3.13;;
64029;SDS011;50277;52.064;4.492;2023-04-12T00:50:43;9.43;;;3.17;;
64029;SDS011;50277;52.064;4.492;2023-04-12T00:53:10;4.53;;;3.05;;
64029;SDS011;50277;52.064;4.492;2023-04-12T00:55:38;7.82;;;2.78;;
64029;SDS011;50277;52.064;4.492;2023-04-12T00:58:05;9.25;;;3.00;;
64029;SDS011;50277;52.064;4.492;2023-04-12T01:00:30;5.07;;;2.90;;
64029;SDS011;50277;52.064;4.492;2023-04-12T01:02:56;5.47;;;2.85;;
64029;SDS011;50277;52.064;4.492;2023-04-12T01:05:23;7.45;;;3.10;;
64029;SDS011;50277;52.064;4.492;2023-04-12T01:10:45;8.82;;;3.70;;
64029;SDS011;50277;52.064;4.492;2023-04-12T01:19:18;6.18;;;2.55;;
64029;SDS011;50277;52.064;4.492;2023-04-12T01:24:42;3.03;;;2.20;;
64029;SDS011;50277;52.064;4.492;2023-04-12T01:27:24;5.90;;;2.13;;
64029;SDS011;50277;52.064;4.492;2023-04-12T01:29:57;7.80;;;3.25;;
64029;SDS011;50277;52.064;4.492;2023-04-12T01:32:24;5.97;;;2.42;;
64029;SDS011;50277;52.064;4.492;2023-04-12T01:34:49;4.80;;;2.95;;
64029;SDS011;50277;52.064;4.492;2023-04-12T01:37:15;4.28;;;2.25;;
64029;SDS011;50277;52.064;4.492;2023-04-12T01:39:43;4.53;;;2.40;;
64029;SDS011;50277;52.064;4.492;2023-04-12T01:42:09;4.43;;;2.15;;
64029;SDS011;50277;52.064;4.492;2023-04-12T01:44:35;2.13;;;1.77;;
64029;SDS011;50277;52.064;4.492;2023-04-12T01:47:00;3.60;;;2.25;;
64029;SDS011;50277;52.064;4.492;2023-04-12T01:49:27;8.15;;;2.17;;
64029;SDS011;50277;52.064;4.492;2023-04-12T01:52:00;3.50;;;2.00;;
64029;SDS011;50277;52.064;4.492;2023-04-12T01:54:32;5.63;;;1.75;;
64029;SDS011;50277;52.064;4.492;2023-04-12T01:57:01;9.80;;;2.40;;
64029;SDS011;50277;52.064;4.492;2023-04-12T01:59:39;4.03;;;1.80;;
64029;SDS011;50277;52.064;4.492;2023-04-12T02:02:06;5.07;;;2.22;;
64029;SDS011;50277;52.064;4.492;2023-04-12T02:04:32;5.22;;;2.13;;
64029;SDS011;50277;52.064;4.492;2023-04-12T02:06:58;9.07;;;2.05;;
64029;SDS011;50277;52.064;4.492;2023-04-12T02:09:24;7.47;;;2.10;;
64029;SDS011;50277;52.064;4.492;2023-04-12T02:11:49;2.45;;;1.65;;
64029;SDS011;50277;52.064;4.492;2023-04-12T02:14:15;3.72;;;1.85;;
64029;SDS011;50277;52.064;4.492;2023-04-12T02:16:40;4.68;;;1.95;;
64029;SDS011;50277;52.064;4.492;2023-04-12T02:19:06;3.75;;;1.90;;
64029;SDS011;50277;52.064;4.492;2023-04-12T02:21:39;4.18;;;2.10;;
64029;SDS011;50277;52.064;4.492;2023-04-12T02:24:06;4.30;;;2.00;;
64029;SDS011;50277;52.064;4.492;2023-04-12T02:26:31;2.60;;;1.80;;
64029;SDS011;50277;52.064;4.492;2023-04-12T02:28:56;7.68;;;1.70;;
64029;SDS011;50277;52.064;4.492;2023-04-12T02:31:22;3.92;;;1.77;;
64029;SDS011;50277;52.064;4.492;2023-04-12T02:33:48;5.35;;;2.30;;
64029;SDS011;50277;52.064;4.492;2023-04-12T02:36:14;4.20;;;1.80;;
64029;SDS011;50277;52.064;4.492;2023-04-12T02:38:39;4.15;;;1.77;;
64029;SDS011;50277;52.064;4.492;2023-04-12T02:41:04;3.20;;;2.15;;
64029;SDS011;50277;52.064;4.492;2023-04-12T02:43:31;2.88;;;1.77;;
64029;SDS011;50277;52.064;4.492;2023-04-12T02:45:58;3.22;;;2.08;;
64029;SDS011;50277;52.064;4.492;2023-04-12T02:48:24;6.32;;;2.03;;
64029;SDS011;50277;52.064;4.492;2023-04-12T02:50:49;4.20;;;2.05;;
64029;SDS011;50277;52.064;4.492;2023-04-12T02:53:14;4.47;;;2.20;;
64029;SDS011;50277;52.064;4.492;2023-04-12T02:55:40;3.00;;;2.50;;
64029;SDS011;50277;52.064;4.492;2023-04-12T02:58:05;7.03;;;2.30;;
64029;SDS011;50277;52.064;4.492;2023-04-12T03:00:31;3.42;;;1.95;;
64029;SDS011;50277;52.064;4.492;2023-04-12T03:02:58;4.05;;;2.00;;
64029;SDS011;50277;52.064;4.492;2023-04-12T03:05:25;3.95;;;2.13;;
64029;SDS011;50277;52.064;4.492;2023-04-12T03:07:51;2.47;;;2.28;;
64029;SDS011;50277;52.064;4.492;2023-04-12T03:10:16;2.38;;;1.98;;
64029;SDS011;50277;52.064;4.492;2023-04-12T03:12:42;3.13;;;2.13;;
64029;SDS011;50277;52.064;4.492;2023-04-12T03:15:07;5.57;;;2.45;;
64029;SDS011;50277;52.064;4.492;2023-04-12T03:17:33;5.25;;;2.40;;
64029;SDS011;50277;52.064;4.492;2023-04-12T03:20:05;2.88;;;2.10;;
64029;SDS011;50277;52.064;4.492;2023-04-12T03:22:34;3.10;;;1.92;;
64029;SDS011;50277;52.064;4.492;2023-04-12T03:25:01;3.10;;;2.45;;
64029;SDS011;50277;52.064;4.492;2023-04-12T03:27:27;4.50;;;2.65;;
64029;SDS011;50277;52.064;4.492;2023-04-12T03:29:53;2.60;;;2.05;;
64029;SDS011;50277;52.064;4.492;2023-04-12T03:32:18;3.30;;;2.42;;
64029;SDS011;50277;52.064;4.492;2023-04-12T03:34:45;4.15;;;2.20;;
64029;SDS011;50277;52.064;4.492;2023-04-12T03:37:10;8.73;;;2.28;;
64029;SDS011;50277;52.064;4.492;2023-04-12T03:39:35;2.60;;;2.13;;
64029;SDS011;50277;52.064;4.492;2023-04-12T03:42:01;3.13;;;1.85;;
64029;SDS011;50277;52.064;4.492;2023-04-12T03:44:26;5.45;;;2.50;;
64029;SDS011;50277;52.064;4.492;2023-04-12T03:46:51;2.50;;;2.30;;
64029;SDS011;50277;52.064;4.492;2023-04-12T03:49:17;5.45;;;2.30;;
64029;SDS011;50277;52.064;4.492;2023-04-12T03:51:42;6.88;;;2.10;;
64029;SDS011;50277;52.064;4.492;2023-04-12T03:54:11;3.28;;;2.38;;
64029;SDS011;50277;52.064;4.492;2023-04-12T03:56:37;3.33;;;2.45;;
64029;SDS011;50277;52.064;4.492;2023-04-12T03:59:02;5.63;;;2.25;;
64029;SDS011;50277;52.064;4.492;2023-04-12T04:01:28;2.60;;;2.00;;
64029;SDS011;50277;52.064;4.492;2023-04-12T04:03:54;3.47;;;2.40;;
64029;SDS011;50277;52.064;4.492;2023-04-12T04:06:19;2.22;;;1.90;;
64029;SDS011;50277;52.064;4.492;2023-04-12T04:08:44;4.28;;;2.20;;
64029;SDS011;50277;52.064;4.492;2023-04-12T04:11:11;3.30;;;2.30;;
64029;SDS011;50277;52.064;4.492;2023-04-12T04:13:36;7.43;;;2.40;;
64029;SDS011;50277;52.064;4.492;2023-04-12T04:16:02;2.53;;;2.33;;
64029;SDS011;50277;52.064;4.492;2023-04-12T04:18:29;2.50;;;2.30;;
64029;SDS011;50277;52.064;4.492;2023-04-12T04:20:54;3.30;;;2.50;;
64029;SDS011;50277;52.064;4.492;2023-04-12T04:23:20;2.88;;;2.67;;
64029;SDS011;50277;52.064;4.492;2023-04-12T04:25:47;7.18;;;3.42;;
64029;SDS011;50277;52.064;4.492;2023-04-12T04:28:12;3.90;;;3.50;;
64029;SDS011;50277;52.064;4.492;2023-04-12T04:30:39;3.78;;;3.38;;
64029;SDS011;50277;52.064;4.492;2023-04-12T04:33:05;4.53;;;4.05;;
64029;SDS011;50277;52.064;4.492;2023-04-12T04:35:31;4.63;;;4.22;;
64029;SDS011;50277;52.064;4.492;2023-04-12T04:37:56;5.18;;;4.68;;
64029;SDS011;50277;52.064;4.492;2023-04-12T04:40:22;8.38;;;4.90;;
64029;SDS011;50277;52.064;4.492;2023-04-12T04:42:49;6.32;;;5.35;;
64029;SDS011;50277;52.064;4.492;2023-04-12T04:45:20;8.05;;;6.38;;
64029;SDS011;50277;52.064;4.492;2023-04-12T04:47:51;6.70;;;5.75;;
64029;SDS011;50277;52.064;4.492;2023-04-12T04:50:17;9.25;;;6.75;;
64029;SDS011;50277;52.064;4.492;2023-04-12T04:52:43;11.30;;;6.85;;
64029;SDS011;50277;52.064;4.492;2023-04-12T04:55:08;8.50;;;6.78;;
64029;SDS011;50277;52.064;4.492;2023-04-12T04:57:34;7.70;;;6.10;;
64029;SDS011;50277;52.064;4.492;2023-04-12T05:00:00;10.13;;;6.30;;
64029;SDS011;50277;52.064;4.492;2023-04-12T05:02:26;9.60;;;6.72;;
64029;SDS011;50277;52.064;4.492;2023-04-12T05:04:51;9.48;;;6.75;;
64029;SDS011;50277;52.064;4.492;2023-04-12T05:07:16;9.10;;;6.43;;
64029;SDS011;50277;52.064;4.492;2023-04-12T05:09:42;9.32;;;6.45;;
64029;SDS011;50277;52.064;4.492;2023-04-12T05:12:07;8.75;;;6.35;;
64029;SDS011;50277;52.064;4.492;2023-04-12T05:14:32;10.02;;;6.20;;
64029;SDS011;50277;52.064;4.492;2023-04-12T05:16:58;12.13;;;6.20;;
64029;SDS011;50277;52.064;4.492;2023-04-12T05:19:23;12.43;;;5.80;;
64029;SDS011;50277;52.064;4.492;2023-04-12T05:21:48;13.48;;;6.07;;
64029;SDS011;50277;52.064;4.492;2023-04-12T05:24:14;12.55;;;5.80;;
64029;SDS011;50277;52.064;4.492;2023-04-12T05:26:39;12.75;;;4.97;;
64029;SDS011;50277;52.064;4.492;2023-04-12T05:29:04;14.32;;;5.50;;
64029;SDS011;50277;52.064;4.492;2023-04-12T05:31:30;10.82;;;4.45;;
64029;SDS011;50277;52.064;4.492;2023-04-12T05:33:56;13.93;;;4.45;;
64029;SDS011;50277;52.064;4.492;2023-04-12T05:36:21;12.50;;;4.30;;
64029;SDS011;50277;52.064;4.492;2023-04-12T05:38:47;13.18;;;3.85;;
64029;SDS011;50277;52.064;4.492;2023-04-12T05:41:12;17.00;;;4.30;;
64029;SDS011;50277;52.064;4.492;2023-04-12T05:43:37;21.02;;;4.32;;
64029;SDS011;50277;52.064;4.492;2023-04-12T05:46:04;23.35;;;4.03;;
64029;SDS011;50277;52.064;4.492;2023-04-12T05:48:31;19.10;;;4.10;;
64029;SDS011;50277;52.064;4.492;2023-04-12T05:50:57;19.23;;;3.45;;
64029;SDS011;50277;52.064;4.492;2023-04-12T05:53:22;22.73;;;4.43;;
64029;SDS011;50277;52.064;4.492;2023-04-12T05:55:48;25.58;;;4.22;;
64029;SDS011;50277;52.064;4.492;2023-04-12T05:58:13;17.38;;;3.70;;
64029;SDS011;50277;52.064;4.492;2023-04-12T06:00:39;20.90;;;4.00;;
64029;SDS011;50277;52.064;4.492;2023-04-12T06:03:09;34.08;;;3.92;;
64029;SDS011;50277;52.064;4.492;2023-04-12T06:05:35;17.45;;;3.72;;
64029;SDS011;50277;52.064;4.492;2023-04-12T06:08:01;19.15;;;3.65;;
64029;SDS011;50277;52.064;4.492;2023-04-12T06:10:26;25.05;;;4.88;;
64029;SDS011;50277;52.064;4.492;2023-04-12T06:12:52;24.20;;;3.97;;
64029;SDS011;50277;52.064;4.492;2023-04-12T06:15:17;21.50;;;3.13;;
64029;SDS011;50277;52.064;4.492;2023-04-12T06:17:44;30.65;;;4.00;;
64029;SDS011;50277;52.064;4.492;2023-04-12T06:20:10;16.77;;;3.20;;
64029;SDS011;50277;52.064;4.492;2023-04-12T06:22:36;21.00;;;3.55;;
64029;SDS011;50277;52.064;4.492;2023-04-12T06:25:01;28.33;;;4.43;;
64029;SDS011;50277;52.064;4.492;2023-04-12T06:27:27;25.02;;;3.72;;
64029;SDS011;50277;52.064;4.492;2023-04-12T06:29:53;23.92;;;4.40;;
64029;SDS011;50277;52.064;4.492;2023-04-12T06:32:18;22.25;;;3.35;;
64029;SDS011;50277;52.064;4.492;2023-04-12T06:34:44;21.00;;;4.28;;
64029;SDS011;50277;52.064;4.492;2023-04-12T06:37:09;26.50;;;4.10;;
64029;SDS011;50277;52.064;4.492;2023-04-12T06:39:35;19.90;;;3.35;;
64029;SDS011;50277;52.064;4.492;2023-04-12T06:42:01;12.68;;;2.90;;
64029;SDS011;50277;52.064;4.492;2023-04-12T06:44:26;15.73;;;3.50;;
64029;SDS011;50277;52.064;4.492;2023-04-12T06:46:52;20.45;;;3.63;;
64029;SDS011;50277;52.064;4.492;2023-04-12T06:49:17;23.40;;;3.63;;
64029;SDS011;50277;52.064;4.492;2023-04-12T06:51:43;21.95;;;4.28;;
64029;SDS011;50277;52.064;4.492;2023-04-12T06:54:08;26.33;;;4.60;;
64029;SDS011;50277;52.064;4.492;2023-04-12T06:56:35;22.20;;;3.22;;
64029;SDS011;50277;52.064;4.492;2023-04-12T06:59:01;32.25;;;4.50;;
64029;SDS011;50277;52.064;4.492;2023-04-12T07:01:26;25.58;;;3.97;;
64029;SDS011;50277;52.064;4.492;2023-04-12T07:03:51;20.92;;;3.22;;
64029;SDS011;50277;52.064;4.492;2023-04-12T07:06:17;32.40;;;4.35;;
64029;SDS011;50277;52.064;4.492;2023-04-12T07:08:42;20.80;;;3.92;;
64029;SDS011;50277;52.064;4.492;2023-04-12T07:11:07;20.23;;;4.13;;
64029;SDS011;50277;52.064;4.492;2023-04-12T07:13:33;15.18;;;3.40;;
64029;SDS011;50277;52.064;4.492;2023-04-12T07:15:58;21.77;;;3.50;;
64029;SDS011;50277;52.064;4.492;2023-04-12T07:18:24;14.27;;;2.95;;
64029;SDS011;50277;52.064;4.492;2023-04-12T07:20:53;22.60;;;4.40;;
64029;SDS011;50277;52.064;4.492;2023-04-12T07:23:18;24.50;;;4.40;;
64029;SDS011;50277;52.064;4.492;2023-04-12T07:25:44;26.02;;;5.30;;
64029;SDS011;50277;52.064;4.492;2023-04-12T07:28:10;20.73;;;3.88;;
64029;SDS011;50277;52.064;4.492;2023-04-12T07:30:37;20.73;;;4.60;;
64029;SDS011;50277;52.064;4.492;2023-04-12T07:33:03;17.03;;;4.57;;
64029;SDS011;50277;52.064;4.492;2023-04-12T07:35:29;17.85;;;4.10;;
64029;SDS011;50277;52.064;4.492;2023-04-12T07:37:55;13.25;;;4.10;;
64029;SDS011;50277;52.064;4.492;2023-04-12T07:40:21;13.38;;;3.45;;
64029;SDS011;50277;52.064;4.492;2023-04-12T07:42:46;10.25;;;3.53;;
64029;SDS011;50277;52.064;4.492;2023-04-12T07:45:12;13.52;;;3.70;;
64029;SDS011;50277;52.064;4.492;2023-04-12T07:47:37;14.57;;;3.63;;
64029;SDS011;50277;52.064;4.492;2023-04-12T07:50:02;14.23;;;3.63;;
64029;SDS011;50277;52.064;4.492;2023-04-12T07:52:28;21.50;;;4.35;;
64029;SDS011;50277;52.064;4.492;2023-04-12T07:54:53;16.80;;;3.88;;
64029;SDS011;50277;52.064;4.492;2023-04-12T07:57:19;17.00;;;4.13;;
64029;SDS011;50277;52.064;4.492;2023-04-12T07:59:45;15.25;;;3.70;;
64029;SDS011;50277;52.064;4.492;2023-04-12T08:02:10;23.48;;;4.25;;
64029;SDS011;50277;52.064;4.492;2023-04-12T08:04:35;15.27;;;3.88;;
64029;SDS011;50277;52.064;4.492;2023-04-12T08:07:02;11.80;;;3.67;;
64029;SDS011;50277;52.064;4.492;2023-04-12T08:09:27;15.77;;;3.45;;
64029;SDS011;50277;52.064;4.492;2023-04-12T08:11:53;15.38;;;3.88;;
64029;SDS011;50277;52.064;4.492;2023-04-12T08:14:18;24.45;;;4.03;;
64029;SDS011;50277;52.064;4.492;2023-04-12T08:16:44;14.27;;;4.45;;
64029;SDS011;50277;52.064;4.492;2023-04-12T08:19:09;14.18;;;3.63;;
64029;SDS011;50277;52.064;4.492;2023-04-12T08:21:35;13.90;;;3.30;;
64029;SDS011;50277;52.064;4.492;2023-04-12T08:24:01;15.73;;;3.50;;
64029;SDS011;50277;52.064;4.492;2023-04-12T08:26:26;13.63;;;3.50;;
64029;SDS011;50277;52.064;4.492;2023-04-12T08:28:53;13.27;;;3.50;;
64029;SDS011;50277;52.064;4.492;2023-04-12T08:31:20;11.18;;;3.58;;
64029;SDS011;50277;52.064;4.492;2023-04-12T08:33:46;15.15;;;3.72;;
64029;SDS011;50277;52.064;4.492;2023-04-12T08:36:11;6.75;;;3.28;;
64029;SDS011;50277;52.064;4.492;2023-04-12T08:38:36;14.45;;;3.88;;
64029;SDS011;50277;52.064;4.492;2023-04-12T08:41:03;13.43;;;3.28;;
64029;SDS011;50277;52.064;4.492;2023-04-12T08:43:29;15.95;;;3.92;;
64029;SDS011;50277;52.064;4.492;2023-04-12T08:45:56;10.70;;;3.40;;
64029;SDS011;50277;52.064;4.492;2023-04-12T08:48:22;15.20;;;4.13;;
64029;SDS011;50277;52.064;4.492;2023-04-12T08:50:49;18.60;;;3.75;;
64029;SDS011;50277;52.064;4.492;2023-04-12T08:53:15;15.07;;;3.88;;
64029;SDS011;50277;52.064;4.492;2023-04-12T08:55:44;18.67;;;4.18;;
64029;SDS011;50277;52.064;4.492;2023-04-12T08:58:10;16.92;;;4.32;;
64029;SDS011;50277;52.064;4.492;2023-04-12T09:03:03;17.43;;;4.23;;
64029;SDS011;50277;52.064;4.492;2023-04-12T09:05:29;22.25;;;4.35;;
64029;SDS011;50277;52.064;4.492;2023-04-12T09:07:55;17.08;;;4.38;;
64029;SDS011;50277;52.064;4.492;2023-04-12T09:10:33;15.27;;;3.80;;
64029;SDS011;50277;52.064;4.492;2023-04-12T09:13:01;15.27;;;4.32;;
64029;SDS011;50277;52.064;4.492;2023-04-12T09:15:27;7.70;;;3.30;;
64029;SDS011;50277;52.064;4.492;2023-04-12T09:18:06;22.52;;;4.35;;
64029;SDS011;50277;52.064;4.492;2023-04-12T09:20:33;13.88;;;3.75;;
64029;SDS011;50277;52.064;4.492;2023-04-12T09:22:59;11.15;;;2.97;;
64029;SDS011;50277;52.064;4.492;2023-04-12T09:25:35;21.08;;;4.57;;
64029;SDS011;50277;52.064;4.492;2023-04-12T09:30:42;16.50;;;4.32;;
64029;SDS011;50277;52.064;4.492;2023-04-12T09:33:10;11.70;;;3.20;;
64029;SDS011;50277;52.064;4.492;2023-04-12T09:35:37;12.50;;;3.10;;
64029;SDS011;50277;52.064;4.492;2023-04-12T09:38:06;12.32;;;3.40;;
64029;SDS011;50277;52.064;4.492;2023-04-12T09:40:32;13.57;;;3.47;;
64029;SDS011;50277;52.064;4.492;2023-04-12T09:43:00;12.40;;;3.08;;
64029;SDS011;50277;52.064;4.492;2023-04-12T09:45:25;13.98;;;3.25;;
64029;SDS011;50277;52.064;4.492;2023-04-12T09:47:52;10.30;;;3.40;;
64029;SDS011;50277;52.064;4.492;2023-04-12T09:50:36;14.88;;;3.63;;
64029;SDS011;50277;52.064;4.492;2023-04-12T09:53:02;14.25;;;3.22;;
64029;SDS011;50277;52.064;4.492;2023-04-12T09:55:29;13.80;;;3.65;;
64029;SDS011;50277;52.064;4.492;2023-04-12T09:58:00;14.77;;;3.63;;
64029;SDS011;50277;52.064;4.492;2023-04-12T10:00:27;11.52;;;3.72;;
64029;SDS011;50277;52.064;4.492;2023-04-12T10:02:53;13.95;;;3.85;;
64029;SDS011;50277;52.064;4.492;2023-04-12T10:05:20;12.15;;;3.78;;
64029;SDS011;50277;52.064;4.492;2023-04-12T10:07:47;18.48;;;4.30;;
64029;SDS011;50277;52.064;4.492;2023-04-12T10:10:13;15.98;;;4.68;;
64029;SDS011;50277;52.064;4.492;2023-04-12T10:12:40;10.77;;;3.38;;
64029;SDS011;50277;52.064;4.492;2023-04-12T10:15:07;9.32;;;2.90;;
64029;SDS011;50277;52.064;4.492;2023-04-12T10:17:41;12.55;;;3.75;;
64029;SDS011;50277;52.064;4.492;2023-04-12T10:20:11;13.10;;;3.85;;
64029;SDS011;50277;52.064;4.492;2023-04-12T10:22:47;9.88;;;3.17;;
64029;SDS011;50277;52.064;4.492;2023-04-12T10:25:20;12.05;;;3.97;;
64029;SDS011;50277;52.064;4.492;2023-04-12T10:27:47;9.50;;;3.72;;
64029;SDS011;50277;52.064;4.492;2023-04-12T10:30:22;12.30;;;3.20;;
64029;SDS011;50277;52.064;4.492;2023-04-12T10:33:09;12.77;;;3.10;;
64029;SDS011;50277;52.064;4.492;2023-04-12T10:38:45;13.32;;;3.70;;
64029;SDS011;50277;52.064;4.492;2023-04-12T10:41:15;12.73;;;3.85;;
64029;SDS011;50277;52.064;4.492;2023-04-12T10:43:42;13.85;;;3.70;;
64029;SDS011;50277;52.064;4.492;2023-04-12T10:49:06;8.38;;;2.92;;
64029;SDS011;50277;52.064;4.492;2023-04-12T10:51:32;11.35;;;3.25;;
64029;SDS011;50277;52.064;4.492;2023-04-12T10:56:39;12.90;;;3.13;;
64029;SDS011;50277;52.064;4.492;2023-04-12T10:59:09;10.05;;;3.00;;
64029;SDS011;50277;52.064;4.492;2023-04-12T11:01:35;9.73;;;2.72;;
64029;SDS011;50277;52.064;4.492;2023-04-12T11:04:20;10.10;;;2.75;;
64029;SDS011;50277;52.064;4.492;2023-04-12T11:06:47;6.90;;;2.05;;
64029;SDS011;50277;52.064;4.492;2023-04-12T11:09:16;10.13;;;2.40;;
64029;SDS011;50277;52.064;4.492;2023-04-12T11:11:50;7.43;;;2.35;;
64029;SDS011;50277;52.064;4.492;2023-04-12T11:22:07;6.53;;;1.90;;
64029;SDS011;50277;52.064;4.492;2023-04-12T11:24:38;7.20;;;2.17;;
64029;SDS011;50277;52.064;4.492;2023-04-12T11:27:04;6.72;;;1.98;;
64029;SDS011;50277;52.064;4.492;2023-04-12T11:29:29;5.00;;;1.88;;
64029;SDS011;50277;52.064;4.492;2023-04-12T11:31:56;5.82;;;2.17;;
64029;SDS011;50277;52.064;4.492;2023-04-12T11:34:22;3.25;;;1.50;;
64029;SDS011;50277;52.064;4.492;2023-04-12T11:36:51;4.28;;;1.65;;
64029;SDS011;50277;52.064;4.492;2023-04-12T11:39:17;5.28;;;1.80;;
64029;SDS011;50277;52.064;4.492;2023-04-12T11:41:44;6.28;;;1.80;;
64029;SDS011;50277;52.064;4.492;2023-04-12T11:44:10;5.90;;;1.63;;
64029;SDS011;50277;52.064;4.492;2023-04-12T11:46:37;8.00;;;1.73;;
64029;SDS011;50277;52.064;4.492;2023-04-12T11:49:02;6.13;;;1.90;;
64029;SDS011;50277;52.064;4.492;2023-04-12T11:51:30;4.82;;;1.55;;
64029;SDS011;50277;52.064;4.492;2023-04-12T11:53:57;5.18;;;1.60;;
64029;SDS011;50277;52.064;4.492;2023-04-12T11:56:23;7.50;;;1.60;;
64029;SDS011;50277;52.064;4.492;2023-04-12T11:58:49;4.57;;;1.65;;
64029;SDS011;50277;52.064;4.492;2023-04-12T12:01:14;8.23;;;1.88;;
64029;SDS011;50277;52.064;4.492;2023-04-12T12:03:41;4.93;;;1.77;;
64029;SDS011;50277;52.064;4.492;2023-04-12T12:06:07;3.90;;;1.40;;
64029;SDS011;50277;52.064;4.492;2023-04-12T12:08:33;6.90;;;2.00;;
64029;SDS011;50277;52.064;4.492;2023-04-12T12:10:58;10.55;;;2.10;;
64029;SDS011;50277;52.064;4.492;2023-04-12T12:13:24;6.47;;;1.85;;
64029;SDS011;50277;52.064;4.492;2023-04-12T12:15:52;6.95;;;1.73;;
64029;SDS011;50277;52.064;4.492;2023-04-12T12:18:17;9.57;;;2.03;;
64029;SDS011;50277;52.064;4.492;2023-04-12T12:20:47;5.45;;;1.80;;
64029;SDS011;50277;52.064;4.492;2023-04-12T12:23:35;9.20;;;2.65;;
64029;SDS011;50277;52.064;4.492;2023-04-12T12:26:00;10.65;;;1.92;;
64029;SDS011;50277;52.064;4.492;2023-04-12T12:28:28;6.72;;;2.05;;
64029;SDS011;50277;52.064;4.492;2023-04-12T12:30:54;6.18;;;1.60;;
64029;SDS011;50277;52.064;4.492;2023-04-12T12:33:21;3.97;;;1.50;;
64029;SDS011;50277;52.064;4.492;2023-04-12T12:35:53;8.82;;;2.22;;
64029;SDS011;50277;52.064;4.492;2023-04-12T12:38:20;6.82;;;2.08;;
64029;SDS011;50277;52.064;4.492;2023-04-12T12:40:45;8.13;;;1.73;;
64029;SDS011;50277;52.064;4.492;2023-04-12T12:43:15;7.13;;;1.98;;
64029;SDS011;50277;52.064;4.492;2023-04-12T12:45:42;7.82;;;2.03;;
64029;SDS011;50277;52.064;4.492;2023-04-12T12:48:07;6.45;;;1.80;;
64029;SDS011;50277;52.064;4.492;2023-04-12T12:50:33;10.07;;;2.42;;
64029;SDS011;50277;52.064;4.492;2023-04-12T12:53:00;13.95;;;2.42;;
64029;SDS011;50277;52.064;4.492;2023-04-12T12:55:26;12.95;;;2.97;;
64029;SDS011;50277;52.064;4.492;2023-04-12T12:57:53;7.80;;;1.75;;
64029;SDS011;50277;52.064;4.492;2023-04-12T13:00:24;8.30;;;2.08;;
64029;SDS011;50277;52.064;4.492;2023-04-12T13:02:51;6.68;;;2.35;;
64029;SDS011;50277;52.064;4.492;2023-04-12T13:05:16;8.57;;;2.35;;
64029;SDS011;50277;52.064;4.492;2023-04-12T13:07:42;6.93;;;2.15;;
64029;SDS011;50277;52.064;4.492;2023-04-12T13:10:08;5.45;;;2.22;;
64029;SDS011;50277;52.064;4.492;2023-04-12T13:12:34;5.40;;;1.77;;
64029;SDS011;50277;52.064;4.492;2023-04-12T13:14:59;6.53;;;1.77;;
64029;SDS011;50277;52.064;4.492;2023-04-12T13:17:28;4.03;;;1.83;;
64029;SDS011;50277;52.064;4.492;2023-04-12T13:19:54;7.57;;;1.40;;
64029;SDS011;50277;52.064;4.492;2023-04-12T13:22:20;3.28;;;1.50;;
64029;SDS011;50277;52.064;4.492;2023-04-12T13:24:45;5.55;;;1.73;;
64029;SDS011;50277;52.064;4.492;2023-04-12T13:27:11;4.00;;;1.17;;
64029;SDS011;50277;52.064;4.492;2023-04-12T13:29:37;4.75;;;1.33;;
64029;SDS011;50277;52.064;4.492;2023-04-12T13:32:02;4.07;;;1.27;;
64029;SDS011;50277;52.064;4.492;2023-04-12T13:34:28;4.03;;;1.30;;
64029;SDS011;50277;52.064;4.492;2023-04-12T13:36:54;1.63;;;1.02;;
64029;SDS011;50277;52.064;4.492;2023-04-12T13:39:20;3.95;;;1.30;;
64029;SDS011;50277;52.064;4.492;2023-04-12T13:41:46;4.50;;;1.42;;
64029;SDS011;50277;52.064;4.492;2023-04-12T13:44:11;6.07;;;1.48;;
64029;SDS011;50277;52.064;4.492;2023-04-12T13:46:36;7.05;;;1.50;;
64029;SDS011;50277;52.064;4.492;2023-04-12T13:49:02;6.10;;;1.17;;
64029;SDS011;50277;52.064;4.492;2023-04-12T13:51:27;3.15;;;1.23;;
64029;SDS011;50277;52.064;4.492;2023-04-12T13:53:53;4.93;;;1.05;;
64029;SDS011;50277;52.064;4.492;2023-04-12T13:56:19;4.35;;;1.27;;
64029;SDS011;50277;52.064;4.492;2023-04-12T13:58:44;5.72;;;1.05;;
64029;SDS011;50277;52.064;4.492;2023-04-12T14:01:10;2.88;;;1.02;;
64029;SDS011;50277;52.064;4.492;2023-04-12T14:03:35;5.15;;;1.30;;
64029;SDS011;50277;52.064;4.492;2023-04-12T14:06:00;3.22;;;1.35;;
64029;SDS011;50277;52.064;4.492;2023-04-12T14:08:27;5.57;;;1.45;;
64029;SDS011;50277;52.064;4.492;2023-04-12T14:10:55;5.10;;;1.50;;
64029;SDS011;50277;52.064;4.492;2023-04-12T14:13:21;6.20;;;1.30;;
64029;SDS011;50277;52.064;4.492;2023-04-12T14:15:47;2.08;;;0.95;;
64029;SDS011;50277;52.064;4.492;2023-04-12T14:18:14;2.25;;;1.15;;
64029;SDS011;50277;52.064;4.492;2023-04-12T14:20:39;3.22;;;1.20;;
64029;SDS011;50277;52.064;4.492;2023-04-12T14:23:05;3.47;;;1.00;;
64029;SDS011;50277;52.064;4.492;2023-04-12T14:25:30;4.68;;;1.40;;
64029;SDS011;50277;52.064;4.492;2023-04-12T14:27:55;3.83;;;1.15;;
64029;SDS011;50277;52.064;4.492;2023-04-12T14:30:21;1.95;;;1.05;;
64029;SDS011;50277;52.064;4.492;2023-04-12T14:32:47;2.47;;;0.82;;
64029;SDS011;50277;52.064;4.492;2023-04-12T14:35:13;4.13;;;1.20;;
64029;SDS011;50277;52.064;4.492;2023-04-12T14:37:39;4.60;;;1.42;;
64029;SDS011;50277;52.064;4.492;2023-04-12T14:40:04;5.65;;;1.20;;
64029;SDS011;50277;52.064;4.492;2023-04-12T14:42:30;2.75;;;1.30;;
64029;SDS011;50277;52.064;4.492;2023-04-12T14:44:56;5.35;;;1.30;;
64029;SDS011;50277;52.064;4.492;2023-04-12T14:47:21;3.28;;;1.20;;
64029;SDS011;50277;52.064;4.492;2023-04-12T14:49:47;4.50;;;1.15;;
64029;SDS011;50277;52.064;4.492;2023-04-12T14:52:12;5.80;;;1.55;;
64029;SDS011;50277;52.064;4.492;2023-04-12T14:54:38;3.88;;;1.17;;
64029;SDS011;50277;52.064;4.492;2023-04-12T14:57:03;3.53;;;1.38;;
64029;SDS011;50277;52.064;4.492;2023-04-12T14:59:29;6.22;;;1.38;;
64029;SDS011;50277;52.064;4.492;2023-04-12T15:01:54;4.07;;;1.33;;
64029;SDS011;50277;52.064;4.492;2023-04-12T15:04:19;4.07;;;1.73;;
64029;SDS011;50277;52.064;4.492;2023-04-12T15:06:45;9.70;;;1.60;;
64029;SDS011;50277;52.064;4.492;2023-04-12T15:09:12;9.18;;;1.83;;
64029;SDS011;50277;52.064;4.492;2023-04-12T15:11:37;4.88;;;1.50;;
64029;SDS011;50277;52.064;4.492;2023-04-12T15:14:03;10.85;;;2.00;;